sensor_id;sensor_type;location;lat;lon;timestamp;P1;durP1;ratioP1;P2;durP2;ratioP2
34988;SDS011;21192;40.182;44.516;2023-04-30T00:00:59;8.80;;;2.13;;
34988;SDS011;21192;40.182;44.516;2023-04-30T00:03:25;9.25;;;2.47;;
34988;SDS011;21192;40.182;44.516;2023-04-30T00:05:51;7.75;;;2.65;;
34988;SDS011;21192;40.182;44.516;2023-04-30T00:08:17;8.43;;;2.90;;
34988;SDS011;21192;40.182;44.516;2023-04-30T00:10:43;5.75;;;2.15;;
34988;SDS011;21192;40.182;44.516;2023-04-30T00:13:09;6.03;;;2.25;;
34988;SDS011;21192;40.182;44.516;2023-04-30T00:15:37;7.22;;;2.13;;
34988;SDS011;21192;40.182;44.516;2023-04-30T00:18:04;10.45;;;2.47;;
34988;SDS011;21192;40.182;44.516;2023-04-30T00:20:31;6.57;;;2.28;;
34988;SDS011;21192;40.182;44.516;2023-04-30T00:22:59;7.35;;;1.83;;
34988;SDS011;21192;40.182;44.516;2023-04-30T00:25:24;5.40;;;1.70;;
34988;SDS011;21192;40.182;44.516;2023-04-30T00:27:50;8.30;;;1.88;;
34988;SDS011;21192;40.182;44.516;2023-04-30T00:30:16;9.02;;;2.33;;
34988;SDS011;21192;40.182;44.516;2023-04-30T00:32:42;6.38;;;1.90;;
34988;SDS011;21192;40.182;44.516;2023-04-30T00:35:10;8.57;;;2.15;;
34988;SDS011;21192;40.182;44.516;2023-04-30T00:37:36;7.50;;;1.92;;
34988;SDS011;21192;40.182;44.516;2023-04-30T00:40:02;7.30;;;2.50;;
34988;SDS011;21192;40.182;44.516;2023-04-30T00:42:28;9.63;;;2.42;;
34988;SDS011;21192;40.182;44.516;2023-04-30T00:44:54;10.70;;;2.50;;
34988;SDS011;21192;40.182;44.516;2023-04-30T00:47:20;5.53;;;1.98;;
34988;SDS011;21192;40.182;44.516;2023-04-30T00:49:45;7.95;;;2.42;;
34988;SDS011;21192;40.182;44.516;2023-04-30T00:52:12;8.65;;;2.33;;
34988;SDS011;21192;40.182;44.516;2023-04-30T00:54:38;9.88;;;2.38;;
34988;SDS011;21192;40.182;44.516;2023-04-30T00:57:04;8.13;;;2.80;;
34988;SDS011;21192;40.182;44.516;2023-04-30T00:59:33;7.57;;;2.80;;
34988;SDS011;21192;40.182;44.516;2023-04-30T01:01:59;6.40;;;2.35;;
34988;SDS011;21192;40.182;44.516;2023-04-30T01:04:26;9.82;;;2.42;;
34988;SDS011;21192;40.182;44.516;2023-04-30T01:06:53;8.18;;;2.97;;
34988;SDS011;21192;40.182;44.516;2023-04-30T01:09:19;8.77;;;2.75;;
34988;SDS011;21192;40.182;44.516;2023-04-30T01:11:55;12.82;;;3.03;;
34988;SDS011;21192;40.182;44.516;2023-04-30T01:17:20;8.93;;;3.05;;
34988;SDS011;21192;40.182;44.516;2023-04-30T01:19:55;8.25;;;2.88;;
34988;SDS011;21192;40.182;44.516;2023-04-30T01:30:40;11.18;;;2.58;;
34988;SDS011;21192;40.182;44.516;2023-04-30T01:33:10;6.45;;;2.47;;
34988;SDS011;21192;40.182;44.516;2023-04-30T01:41:13;6.90;;;2.55;;
34988;SDS011;21192;40.182;44.516;2023-04-30T01:47:01;10.80;;;2.85;;
34988;SDS011;21192;40.182;44.516;2023-04-30T01:49:37;7.50;;;2.42;;
34988;SDS011;21192;40.182;44.516;2023-04-30T01:52:32;11.70;;;2.55;;
34988;SDS011;21192;40.182;44.516;2023-04-30T01:55:07;8.80;;;2.72;;
34988;SDS011;21192;40.182;44.516;2023-04-30T01:57:49;9.88;;;2.80;;
34988;SDS011;21192;40.182;44.516;2023-04-30T02:00:21;8.93;;;2.53;;
34988;SDS011;21192;40.182;44.516;2023-04-30T02:02:46;8.25;;;2.72;;
34988;SDS011;21192;40.182;44.516;2023-04-30T02:05:12;10.23;;;2.90;;
34988;SDS011;21192;40.182;44.516;2023-04-30T02:07:39;6.45;;;2.60;;
34988;SDS011;21192;40.182;44.516;2023-04-30T02:10:09;9.85;;;2.63;;
34988;SDS011;21192;40.182;44.516;2023-04-30T02:12:36;9.35;;;2.90;;
34988;SDS011;21192;40.182;44.516;2023-04-30T02:15:03;14.05;;;3.17;;
34988;SDS011;21192;40.182;44.516;2023-04-30T02:17:30;8.50;;;2.58;;
34988;SDS011;21192;40.182;44.516;2023-04-30T02:19:56;10.95;;;3.83;;
34988;SDS011;21192;40.182;44.516;2023-04-30T02:22:22;11.85;;;3.60;;
34988;SDS011;21192;40.182;44.516;2023-04-30T02:24:48;13.10;;;3.70;;
34988;SDS011;21192;40.182;44.516;2023-04-30T02:27:15;11.70;;;3.80;;
34988;SDS011;21192;40.182;44.516;2023-04-30T02:29:41;11.07;;;3.70;;
34988;SDS011;21192;40.182;44.516;2023-04-30T02:32:07;9.45;;;3.78;;
34988;SDS011;21192;40.182;44.516;2023-04-30T02:34:33;9.63;;;3.85;;
34988;SDS011;21192;40.182;44.516;2023-04-30T02:36:59;12.88;;;3.97;;
34988;SDS011;21192;40.182;44.516;2023-04-30T02:39:24;13.23;;;4.22;;
34988;SDS011;21192;40.182;44.516;2023-04-30T02:41:51;13.07;;;4.22;;
34988;SDS011;21192;40.182;44.516;2023-04-30T02:44:16;10.45;;;4.32;;
34988;SDS011;21192;40.182;44.516;2023-04-30T02:46:42;10.02;;;3.85;;
34988;SDS011;21192;40.182;44.516;2023-04-30T02:49:08;9.13;;;3.58;;
34988;SDS011;21192;40.182;44.516;2023-04-30T02:51:34;10.00;;;4.13;;
34988;SDS011;21192;40.182;44.516;2023-04-30T02:54:00;13.45;;;3.80;;
34988;SDS011;21192;40.182;44.516;2023-04-30T02:56:26;17.55;;;3.83;;
34988;SDS011;21192;40.182;44.516;2023-04-30T02:58:52;14.15;;;4.63;;
34988;SDS011;21192;40.182;44.516;2023-04-30T03:01:18;14.18;;;4.18;;
34988;SDS011;21192;40.182;44.516;2023-04-30T03:03:45;12.68;;;4.05;;
34988;SDS011;21192;40.182;44.516;2023-04-30T03:06:11;7.05;;;3.65;;
34988;SDS011;21192;40.182;44.516;2023-04-30T03:08:37;9.23;;;4.15;;
34988;SDS011;21192;40.182;44.516;2023-04-30T03:11:02;9.88;;;4.55;;
34988;SDS011;21192;40.182;44.516;2023-04-30T03:13:28;14.20;;;4.97;;
34988;SDS011;21192;40.182;44.516;2023-04-30T03:15:57;12.15;;;4.00;;
34988;SDS011;21192;40.182;44.516;2023-04-30T03:18:24;10.18;;;4.80;;
34988;SDS011;21192;40.182;44.516;2023-04-30T03:20:53;6.93;;;3.50;;
34988;SDS011;21192;40.182;44.516;2023-04-30T03:23:19;11.52;;;4.35;;
34988;SDS011;21192;40.182;44.516;2023-04-30T03:25:45;11.93;;;4.13;;
34988;SDS011;21192;40.182;44.516;2023-04-30T03:28:12;10.63;;;4.38;;
34988;SDS011;21192;40.182;44.516;2023-04-30T03:30:38;13.38;;;4.55;;
34988;SDS011;21192;40.182;44.516;2023-04-30T03:33:04;12.30;;;3.70;;
34988;SDS011;21192;40.182;44.516;2023-04-30T03:35:31;9.45;;;4.88;;
34988;SDS011;21192;40.182;44.516;2023-04-30T03:37:58;14.20;;;4.50;;
34988;SDS011;21192;40.182;44.516;2023-04-30T03:40:24;13.57;;;4.68;;
34988;SDS011;21192;40.182;44.516;2023-04-30T03:42:50;12.85;;;5.03;;
34988;SDS011;21192;40.182;44.516;2023-04-30T03:45:16;10.02;;;4.43;;
34988;SDS011;21192;40.182;44.516;2023-04-30T03:47:42;12.93;;;4.65;;
34988;SDS011;21192;40.182;44.516;2023-04-30T03:50:09;12.25;;;4.55;;
34988;SDS011;21192;40.182;44.516;2023-04-30T03:52:35;9.50;;;3.40;;
34988;SDS011;21192;40.182;44.516;2023-04-30T03:55:02;9.75;;;2.90;;
34988;SDS011;21192;40.182;44.516;2023-04-30T03:57:28;8.43;;;3.20;;
34988;SDS011;21192;40.182;44.516;2023-04-30T03:59:54;7.90;;;3.13;;
34988;SDS011;21192;40.182;44.516;2023-04-30T04:02:20;9.75;;;3.35;;
34988;SDS011;21192;40.182;44.516;2023-04-30T04:04:46;11.02;;;3.47;;
34988;SDS011;21192;40.182;44.516;2023-04-30T04:07:12;8.40;;;3.42;;
34988;SDS011;21192;40.182;44.516;2023-04-30T04:09:39;10.98;;;3.22;;
34988;SDS011;21192;40.182;44.516;2023-04-30T04:12:06;8.38;;;3.70;;
34988;SDS011;21192;40.182;44.516;2023-04-30T04:14:32;9.25;;;3.78;;
34988;SDS011;21192;40.182;44.516;2023-04-30T04:16:58;8.85;;;3.67;;
34988;SDS011;21192;40.182;44.516;2023-04-30T04:19:27;10.18;;;3.45;;
34988;SDS011;21192;40.182;44.516;2023-04-30T04:21:53;13.20;;;4.15;;
34988;SDS011;21192;40.182;44.516;2023-04-30T04:24:19;11.45;;;4.60;;
34988;SDS011;21192;40.182;44.516;2023-04-30T04:26:44;10.27;;;5.53;;
34988;SDS011;21192;40.182;44.516;2023-04-30T04:29:10;18.23;;;5.72;;
34988;SDS011;21192;40.182;44.516;2023-04-30T04:31:36;18.58;;;5.97;;
34988;SDS011;21192;40.182;44.516;2023-04-30T04:34:03;11.77;;;5.18;;
34988;SDS011;21192;40.182;44.516;2023-04-30T04:36:30;10.60;;;4.90;;
34988;SDS011;21192;40.182;44.516;2023-04-30T04:38:57;11.93;;;4.70;;
34988;SDS011;21192;40.182;44.516;2023-04-30T04:41:26;11.02;;;4.72;;
34988;SDS011;21192;40.182;44.516;2023-04-30T04:43:53;9.55;;;4.22;;
34988;SDS011;21192;40.182;44.516;2023-04-30T04:46:19;12.98;;;4.50;;
34988;SDS011;21192;40.182;44.516;2023-04-30T04:48:45;13.23;;;4.35;;
34988;SDS011;21192;40.182;44.516;2023-04-30T04:51:11;14.38;;;5.18;;
34988;SDS011;21192;40.182;44.516;2023-04-30T04:53:37;9.45;;;4.82;;
34988;SDS011;21192;40.182;44.516;2023-04-30T04:56:03;14.07;;;4.47;;
34988;SDS011;21192;40.182;44.516;2023-04-30T04:58:29;11.05;;;4.32;;
34988;SDS011;21192;40.182;44.516;2023-04-30T05:00:55;10.15;;;4.18;;
34988;SDS011;21192;40.182;44.516;2023-04-30T05:03:21;15.10;;;4.85;;
34988;SDS011;21192;40.182;44.516;2023-04-30T05:05:47;10.23;;;4.18;;
34988;SDS011;21192;40.182;44.516;2023-04-30T05:08:13;9.52;;;4.45;;
34988;SDS011;21192;40.182;44.516;2023-04-30T05:10:39;13.40;;;5.40;;
34988;SDS011;21192;40.182;44.516;2023-04-30T05:13:04;11.65;;;5.38;;
34988;SDS011;21192;40.182;44.516;2023-04-30T05:15:30;12.93;;;5.53;;
34988;SDS011;21192;40.182;44.516;2023-04-30T05:17:56;15.60;;;6.47;;
34988;SDS011;21192;40.182;44.516;2023-04-30T05:20:22;16.13;;;6.47;;
34988;SDS011;21192;40.182;44.516;2023-04-30T05:22:48;16.67;;;5.57;;
34988;SDS011;21192;40.182;44.516;2023-04-30T05:25:14;11.50;;;5.35;;
34988;SDS011;21192;40.182;44.516;2023-04-30T05:27:40;17.05;;;6.03;;
34988;SDS011;21192;40.182;44.516;2023-04-30T05:30:06;9.65;;;4.90;;
34988;SDS011;21192;40.182;44.516;2023-04-30T05:32:33;11.50;;;5.43;;
34988;SDS011;21192;40.182;44.516;2023-04-30T05:34:59;14.85;;;5.47;;
34988;SDS011;21192;40.182;44.516;2023-04-30T05:37:25;13.15;;;6.57;;
34988;SDS011;21192;40.182;44.516;2023-04-30T05:39:54;13.63;;;5.65;;
34988;SDS011;21192;40.182;44.516;2023-04-30T05:42:20;17.52;;;5.32;;
34988;SDS011;21192;40.182;44.516;2023-04-30T05:44:47;16.23;;;5.38;;
34988;SDS011;21192;40.182;44.516;2023-04-30T05:47:13;19.48;;;6.90;;
34988;SDS011;21192;40.182;44.516;2023-04-30T05:49:39;11.93;;;6.00;;
34988;SDS011;21192;40.182;44.516;2023-04-30T05:52:05;13.77;;;6.10;;
34988;SDS011;21192;40.182;44.516;2023-04-30T05:54:31;15.27;;;6.00;;
34988;SDS011;21192;40.182;44.516;2023-04-30T05:56:57;12.05;;;5.20;;
34988;SDS011;21192;40.182;44.516;2023-04-30T05:59:23;16.38;;;5.85;;
34988;SDS011;21192;40.182;44.516;2023-04-30T06:01:50;10.73;;;5.25;;
34988;SDS011;21192;40.182;44.516;2023-04-30T06:04:16;12.02;;;4.82;;
34988;SDS011;21192;40.182;44.516;2023-04-30T06:06:42;13.43;;;4.82;;
34988;SDS011;21192;40.182;44.516;2023-04-30T06:09:07;10.48;;;5.18;;
34988;SDS011;21192;40.182;44.516;2023-04-30T06:11:34;12.52;;;4.72;;
34988;SDS011;21192;40.182;44.516;2023-04-30T06:14:02;16.42;;;4.88;;
34988;SDS011;21192;40.182;44.516;2023-04-30T06:16:28;11.57;;;4.82;;
34988;SDS011;21192;40.182;44.516;2023-04-30T06:18:54;14.05;;;4.20;;
34988;SDS011;21192;40.182;44.516;2023-04-30T06:21:20;23.15;;;5.20;;
34988;SDS011;21192;40.182;44.516;2023-04-30T06:23:50;11.75;;;4.22;;
34988;SDS011;21192;40.182;44.516;2023-04-30T06:26:17;11.05;;;4.60;;
34988;SDS011;21192;40.182;44.516;2023-04-30T06:28:43;10.95;;;4.45;;
34988;SDS011;21192;40.182;44.516;2023-04-30T06:31:10;11.43;;;5.00;;
34988;SDS011;21192;40.182;44.516;2023-04-30T06:33:36;10.07;;;4.13;;
34988;SDS011;21192;40.182;44.516;2023-04-30T06:36:02;12.45;;;4.05;;
34988;SDS011;21192;40.182;44.516;2023-04-30T06:38:28;10.85;;;4.35;;
34988;SDS011;21192;40.182;44.516;2023-04-30T06:40:54;13.48;;;4.07;;
34988;SDS011;21192;40.182;44.516;2023-04-30T06:43:20;11.63;;;4.72;;
34988;SDS011;21192;40.182;44.516;2023-04-30T06:45:46;11.65;;;4.35;;
34988;SDS011;21192;40.182;44.516;2023-04-30T06:48:12;11.50;;;4.80;;
34988;SDS011;21192;40.182;44.516;2023-04-30T06:50:38;17.70;;;4.13;;
34988;SDS011;21192;40.182;44.516;2023-04-30T06:53:11;14.68;;;4.60;;
34988;SDS011;21192;40.182;44.516;2023-04-30T06:55:40;12.93;;;5.32;;
34988;SDS011;21192;40.182;44.516;2023-04-30T06:58:06;15.95;;;5.35;;
34988;SDS011;21192;40.182;44.516;2023-04-30T07:00:33;17.08;;;5.18;;
34988;SDS011;21192;40.182;44.516;2023-04-30T07:02:59;22.52;;;6.57;;
34988;SDS011;21192;40.182;44.516;2023-04-30T07:05:30;17.77;;;6.72;;
34988;SDS011;21192;40.182;44.516;2023-04-30T07:07:56;11.10;;;6.72;;
34988;SDS011;21192;40.182;44.516;2023-04-30T07:10:23;12.93;;;6.43;;
34988;SDS011;21192;40.182;44.516;2023-04-30T07:12:50;14.50;;;6.50;;
34988;SDS011;21192;40.182;44.516;2023-04-30T07:15:16;12.93;;;6.25;;
34988;SDS011;21192;40.182;44.516;2023-04-30T07:17:42;17.35;;;6.70;;
34988;SDS011;21192;40.182;44.516;2023-04-30T07:20:08;15.50;;;8.00;;
34988;SDS011;21192;40.182;44.516;2023-04-30T07:22:34;21.17;;;7.50;;
34988;SDS011;21192;40.182;44.516;2023-04-30T07:25:00;13.35;;;6.43;;
34988;SDS011;21192;40.182;44.516;2023-04-30T07:27:26;18.13;;;5.50;;
34988;SDS011;21192;40.182;44.516;2023-04-30T07:29:52;16.95;;;5.85;;
34988;SDS011;21192;40.182;44.516;2023-04-30T07:32:18;16.42;;;6.35;;
34988;SDS011;21192;40.182;44.516;2023-04-30T07:34:45;13.98;;;6.43;;
34988;SDS011;21192;40.182;44.516;2023-04-30T07:37:10;16.15;;;6.75;;
34988;SDS011;21192;40.182;44.516;2023-04-30T07:39:37;18.63;;;6.47;;
34988;SDS011;21192;40.182;44.516;2023-04-30T07:42:03;16.30;;;7.57;;
34988;SDS011;21192;40.182;44.516;2023-04-30T07:44:30;14.18;;;6.97;;
34988;SDS011;21192;40.182;44.516;2023-04-30T07:46:56;23.45;;;7.32;;
34988;SDS011;21192;40.182;44.516;2023-04-30T07:49:22;17.35;;;6.80;;
34988;SDS011;21192;40.182;44.516;2023-04-30T07:51:49;15.63;;;6.18;;
34988;SDS011;21192;40.182;44.516;2023-04-30T07:54:16;16.48;;;6.30;;
34988;SDS011;21192;40.182;44.516;2023-04-30T07:56:41;20.05;;;5.70;;
34988;SDS011;21192;40.182;44.516;2023-04-30T07:59:07;15.55;;;5.57;;
34988;SDS011;21192;40.182;44.516;2023-04-30T08:01:33;16.80;;;5.60;;
34988;SDS011;21192;40.182;44.516;2023-04-30T08:03:59;24.80;;;6.43;;
34988;SDS011;21192;40.182;44.516;2023-04-30T08:06:25;14.10;;;5.00;;
34988;SDS011;21192;40.182;44.516;2023-04-30T08:08:51;15.35;;;4.80;;
34988;SDS011;21192;40.182;44.516;2023-04-30T08:11:18;15.63;;;4.57;;
34988;SDS011;21192;40.182;44.516;2023-04-30T08:13:44;14.32;;;4.07;;
34988;SDS011;21192;40.182;44.516;2023-04-30T08:16:11;13.55;;;4.50;;
34988;SDS011;21192;40.182;44.516;2023-04-30T08:18:37;14.52;;;4.88;;
34988;SDS011;21192;40.182;44.516;2023-04-30T08:21:07;11.65;;;4.13;;
34988;SDS011;21192;40.182;44.516;2023-04-30T08:23:34;16.02;;;3.45;;
34988;SDS011;21192;40.182;44.516;2023-04-30T08:26:00;18.95;;;4.35;;
34988;SDS011;21192;40.182;44.516;2023-04-30T08:28:25;17.42;;;5.05;;
34988;SDS011;21192;40.182;44.516;2023-04-30T08:30:52;18.45;;;4.72;;
34988;SDS011;21192;40.182;44.516;2023-04-30T08:33:18;17.38;;;4.40;;
34988;SDS011;21192;40.182;44.516;2023-04-30T08:35:44;21.48;;;4.68;;
34988;SDS011;21192;40.182;44.516;2023-04-30T08:38:10;16.42;;;4.20;;
34988;SDS011;21192;40.182;44.516;2023-04-30T08:40:35;22.38;;;7.13;;
34988;SDS011;21192;40.182;44.516;2023-04-30T08:43:05;16.33;;;4.57;;
34988;SDS011;21192;40.182;44.516;2023-04-30T08:45:33;14.77;;;4.25;;
34988;SDS011;21192;40.182;44.516;2023-04-30T08:48:01;14.23;;;4.15;;
34988;SDS011;21192;40.182;44.516;2023-04-30T08:50:32;21.85;;;4.65;;
34988;SDS011;21192;40.182;44.516;2023-04-30T08:52:59;16.92;;;4.18;;
34988;SDS011;21192;40.182;44.516;2023-04-30T08:55:26;18.80;;;4.53;;
34988;SDS011;21192;40.182;44.516;2023-04-30T08:57:52;18.42;;;5.13;;
34988;SDS011;21192;40.182;44.516;2023-04-30T09:00:19;16.00;;;4.25;;
34988;SDS011;21192;40.182;44.516;2023-04-30T09:02:45;24.13;;;6.20;;
34988;SDS011;21192;40.182;44.516;2023-04-30T09:05:16;20.17;;;5.50;;
34988;SDS011;21192;40.182;44.516;2023-04-30T09:07:43;15.60;;;4.60;;
34988;SDS011;21192;40.182;44.516;2023-04-30T09:10:17;17.92;;;5.13;;
34988;SDS011;21192;40.182;44.516;2023-04-30T09:13:07;25.60;;;5.50;;
34988;SDS011;21192;40.182;44.516;2023-04-30T09:15:33;18.20;;;5.05;;
34988;SDS011;21192;40.182;44.516;2023-04-30T09:18:07;17.17;;;5.15;;
34988;SDS011;21192;40.182;44.516;2023-04-30T09:20:35;21.30;;;4.68;;
34988;SDS011;21192;40.182;44.516;2023-04-30T09:23:05;14.65;;;4.00;;
34988;SDS011;21192;40.182;44.516;2023-04-30T09:25:41;19.98;;;5.03;;
34988;SDS011;21192;40.182;44.516;2023-04-30T09:28:11;18.67;;;4.05;;
34988;SDS011;21192;40.182;44.516;2023-04-30T09:30:38;18.15;;;5.57;;
34988;SDS011;21192;40.182;44.516;2023-04-30T09:33:05;16.83;;;4.88;;
34988;SDS011;21192;40.182;44.516;2023-04-30T09:35:32;19.95;;;4.97;;
34988;SDS011;21192;40.182;44.516;2023-04-30T09:38:03;16.58;;;4.28;;
34988;SDS011;21192;40.182;44.516;2023-04-30T09:40:39;18.77;;;3.78;;
34988;SDS011;21192;40.182;44.516;2023-04-30T09:43:06;15.20;;;5.18;;
34988;SDS011;21192;40.182;44.516;2023-04-30T09:45:41;20.33;;;5.55;;
34988;SDS011;21192;40.182;44.516;2023-04-30T09:48:11;20.25;;;4.47;;
34988;SDS011;21192;40.182;44.516;2023-04-30T09:50:40;23.42;;;5.50;;
34988;SDS011;21192;40.182;44.516;2023-04-30T09:53:09;23.02;;;5.03;;
34988;SDS011;21192;40.182;44.516;2023-04-30T09:55:42;16.10;;;4.88;;
34988;SDS011;21192;40.182;44.516;2023-04-30T09:58:13;17.20;;;4.13;;
34988;SDS011;21192;40.182;44.516;2023-04-30T10:00:41;24.50;;;4.40;;
34988;SDS011;21192;40.182;44.516;2023-04-30T10:03:10;19.60;;;4.10;;
34988;SDS011;21192;40.182;44.516;2023-04-30T10:05:45;21.65;;;3.97;;
34988;SDS011;21192;40.182;44.516;2023-04-30T10:08:15;16.17;;;4.00;;
34988;SDS011;21192;40.182;44.516;2023-04-30T10:10:49;18.88;;;3.88;;
34988;SDS011;21192;40.182;44.516;2023-04-30T10:13:22;28.02;;;5.15;;
34988;SDS011;21192;40.182;44.516;2023-04-30T10:15:53;19.75;;;3.90;;
34988;SDS011;21192;40.182;44.516;2023-04-30T10:18:30;25.45;;;4.32;;
34988;SDS011;21192;40.182;44.516;2023-04-30T10:21:07;21.83;;;4.07;;
34988;SDS011;21192;40.182;44.516;2023-04-30T10:23:39;25.58;;;4.30;;
34988;SDS011;21192;40.182;44.516;2023-04-30T10:26:08;26.48;;;8.73;;
34988;SDS011;21192;40.182;44.516;2023-04-30T10:28:36;18.17;;;4.68;;
34988;SDS011;21192;40.182;44.516;2023-04-30T10:31:04;15.82;;;3.95;;
34988;SDS011;21192;40.182;44.516;2023-04-30T10:33:33;15.07;;;4.05;;
34988;SDS011;21192;40.182;44.516;2023-04-30T10:36:13;17.17;;;4.90;;
34988;SDS011;21192;40.182;44.516;2023-04-30T10:38:54;18.02;;;2.95;;
34988;SDS011;21192;40.182;44.516;2023-04-30T10:41:22;18.13;;;3.22;;
34988;SDS011;21192;40.182;44.516;2023-04-30T10:43:50;17.08;;;3.75;;
34988;SDS011;21192;40.182;44.516;2023-04-30T10:46:22;10.05;;;3.22;;
34988;SDS011;21192;40.182;44.516;2023-04-30T10:48:48;13.25;;;3.35;;
34988;SDS011;21192;40.182;44.516;2023-04-30T10:51:18;12.75;;;2.40;;
34988;SDS011;21192;40.182;44.516;2023-04-30T10:53:45;18.70;;;3.55;;
34988;SDS011;21192;40.182;44.516;2023-04-30T10:56:27;17.63;;;3.83;;
34988;SDS011;21192;40.182;44.516;2023-04-30T10:58:57;49.00;;;5.65;;
34988;SDS011;21192;40.182;44.516;2023-04-30T11:01:25;19.10;;;3.45;;
34988;SDS011;21192;40.182;44.516;2023-04-30T11:04:10;21.95;;;4.80;;
34988;SDS011;21192;40.182;44.516;2023-04-30T11:09:18;22.48;;;4.80;;
34988;SDS011;21192;40.182;44.516;2023-04-30T11:11:50;29.15;;;5.50;;
34988;SDS011;21192;40.182;44.516;2023-04-30T11:14:30;29.02;;;4.22;;
34988;SDS011;21192;40.182;44.516;2023-04-30T11:16:58;39.35;;;5.43;;
34988;SDS011;21192;40.182;44.516;2023-04-30T11:19:27;40.97;;;5.72;;
34988;SDS011;21192;40.182;44.516;2023-04-30T11:27:22;41.92;;;10.80;;
34988;SDS011;21192;40.182;44.516;2023-04-30T11:29:50;41.15;;;8.45;;
34988;SDS011;21192;40.182;44.516;2023-04-30T11:32:20;24.05;;;5.78;;
34988;SDS011;21192;40.182;44.516;2023-04-30T11:34:48;23.35;;;4.55;;
34988;SDS011;21192;40.182;44.516;2023-04-30T11:37:34;27.30;;;5.20;;
34988;SDS011;21192;40.182;44.516;2023-04-30T11:40:05;19.25;;;3.40;;
34988;SDS011;21192;40.182;44.516;2023-04-30T11:42:35;15.82;;;3.08;;
34988;SDS011;21192;40.182;44.516;2023-04-30T11:45:08;21.90;;;5.63;;
34988;SDS011;21192;40.182;44.516;2023-04-30T11:47:49;23.75;;;5.20;;
34988;SDS011;21192;40.182;44.516;2023-04-30T11:50:20;15.90;;;4.68;;
34988;SDS011;21192;40.182;44.516;2023-04-30T11:52:57;17.30;;;4.72;;
34988;SDS011;21192;40.182;44.516;2023-04-30T11:55:29;9.07;;;2.72;;
34988;SDS011;21192;40.182;44.516;2023-04-30T11:57:56;13.48;;;3.10;;
34988;SDS011;21192;40.182;44.516;2023-04-30T12:00:28;12.20;;;2.42;;
34988;SDS011;21192;40.182;44.516;2023-04-30T12:02:56;9.45;;;2.50;;
34988;SDS011;21192;40.182;44.516;2023-04-30T12:05:25;8.60;;;2.60;;
34988;SDS011;21192;40.182;44.516;2023-04-30T12:07:55;11.75;;;2.20;;
34988;SDS011;21192;40.182;44.516;2023-04-30T12:10:29;8.93;;;2.75;;
34988;SDS011;21192;40.182;44.516;2023-04-30T12:12:57;12.90;;;2.85;;
34988;SDS011;21192;40.182;44.516;2023-04-30T12:15:24;11.57;;;2.50;;
34988;SDS011;21192;40.182;44.516;2023-04-30T12:17:55;10.63;;;2.78;;
34988;SDS011;21192;40.182;44.516;2023-04-30T12:20:25;7.60;;;2.30;;
34988;SDS011;21192;40.182;44.516;2023-04-30T12:22:54;6.32;;;2.30;;
34988;SDS011;21192;40.182;44.516;2023-04-30T12:25:21;5.57;;;2.22;;
34988;SDS011;21192;40.182;44.516;2023-04-30T12:27:48;11.43;;;2.53;;
34988;SDS011;21192;40.182;44.516;2023-04-30T12:30:25;9.15;;;2.55;;
34988;SDS011;21192;40.182;44.516;2023-04-30T12:32:52;9.07;;;2.10;;
34988;SDS011;21192;40.182;44.516;2023-04-30T12:35:21;11.95;;;2.70;;
34988;SDS011;21192;40.182;44.516;2023-04-30T12:37:53;9.23;;;2.20;;
34988;SDS011;21192;40.182;44.516;2023-04-30T12:40:30;4.28;;;1.95;;
34988;SDS011;21192;40.182;44.516;2023-04-30T12:43:06;5.90;;;2.00;;
34988;SDS011;21192;40.182;44.516;2023-04-30T12:45:43;12.52;;;2.80;;
34988;SDS011;21192;40.182;44.516;2023-04-30T12:48:11;9.43;;;2.20;;
34988;SDS011;21192;40.182;44.516;2023-04-30T12:50:38;11.52;;;1.70;;
34988;SDS011;21192;40.182;44.516;2023-04-30T12:53:04;3.63;;;1.65;;
34988;SDS011;21192;40.182;44.516;2023-04-30T12:55:32;8.13;;;2.70;;
34988;SDS011;21192;40.182;44.516;2023-04-30T12:58:09;5.78;;;2.38;;
34988;SDS011;21192;40.182;44.516;2023-04-30T13:00:56;9.52;;;2.55;;
34988;SDS011;21192;40.182;44.516;2023-04-30T13:03:23;6.38;;;2.75;;
34988;SDS011;21192;40.182;44.516;2023-04-30T13:05:50;10.40;;;3.03;;
34988;SDS011;21192;40.182;44.516;2023-04-30T13:08:20;8.77;;;3.90;;
34988;SDS011;21192;40.182;44.516;2023-04-30T13:10:47;7.90;;;3.20;;
34988;SDS011;21192;40.182;44.516;2023-04-30T13:13:14;12.63;;;4.03;;
34988;SDS011;21192;40.182;44.516;2023-04-30T13:15:42;10.27;;;2.83;;
34988;SDS011;21192;40.182;44.516;2023-04-30T13:18:08;8.13;;;2.58;;
34988;SDS011;21192;40.182;44.516;2023-04-30T13:20:35;16.17;;;3.45;;
34988;SDS011;21192;40.182;44.516;2023-04-30T13:23:02;9.05;;;2.95;;
34988;SDS011;21192;40.182;44.516;2023-04-30T13:25:29;15.10;;;3.65;;
34988;SDS011;21192;40.182;44.516;2023-04-30T13:27:58;11.70;;;3.50;;
34988;SDS011;21192;40.182;44.516;2023-04-30T13:30:24;6.53;;;3.00;;
34988;SDS011;21192;40.182;44.516;2023-04-30T13:32:50;7.72;;;2.97;;
34988;SDS011;21192;40.182;44.516;2023-04-30T13:35:18;7.93;;;1.90;;
34988;SDS011;21192;40.182;44.516;2023-04-30T13:37:44;5.50;;;2.60;;
34988;SDS011;21192;40.182;44.516;2023-04-30T13:40:17;7.35;;;1.95;;
34988;SDS011;21192;40.182;44.516;2023-04-30T13:42:44;16.23;;;3.38;;
34988;SDS011;21192;40.182;44.516;2023-04-30T13:45:11;6.32;;;2.75;;
34988;SDS011;21192;40.182;44.516;2023-04-30T13:47:37;5.82;;;2.00;;
34988;SDS011;21192;40.182;44.516;2023-04-30T13:50:03;6.43;;;1.83;;
34988;SDS011;21192;40.182;44.516;2023-04-30T13:52:31;8.93;;;2.58;;
34988;SDS011;21192;40.182;44.516;2023-04-30T13:54:57;6.10;;;2.35;;
34988;SDS011;21192;40.182;44.516;2023-04-30T13:57:23;7.25;;;2.38;;
34988;SDS011;21192;40.182;44.516;2023-04-30T13:59:49;6.80;;;2.35;;
34988;SDS011;21192;40.182;44.516;2023-04-30T14:02:15;7.07;;;2.13;;
34988;SDS011;21192;40.182;44.516;2023-04-30T14:04:41;7.15;;;3.50;;
34988;SDS011;21192;40.182;44.516;2023-04-30T14:07:07;7.50;;;3.35;;
34988;SDS011;21192;40.182;44.516;2023-04-30T14:09:33;6.75;;;2.78;;
34988;SDS011;21192;40.182;44.516;2023-04-30T14:12:00;7.03;;;2.83;;
34988;SDS011;21192;40.182;44.516;2023-04-30T14:14:26;7.43;;;2.83;;
34988;SDS011;21192;40.182;44.516;2023-04-30T14:16:52;10.13;;;2.92;;
34988;SDS011;21192;40.182;44.516;2023-04-30T14:19:19;7.30;;;2.63;;
34988;SDS011;21192;40.182;44.516;2023-04-30T14:21:46;10.60;;;2.92;;
34988;SDS011;21192;40.182;44.516;2023-04-30T14:24:12;6.97;;;2.53;;
34988;SDS011;21192;40.182;44.516;2023-04-30T14:26:40;10.10;;;2.95;;
34988;SDS011;21192;40.182;44.516;2023-04-30T14:29:06;10.50;;;2.83;;
34988;SDS011;21192;40.182;44.516;2023-04-30T14:31:32;7.35;;;2.65;;
34988;SDS011;21192;40.182;44.516;2023-04-30T14:33:58;9.85;;;3.47;;
34988;SDS011;21192;40.182;44.516;2023-04-30T14:36:25;9.32;;;3.40;;
34988;SDS011;21192;40.182;44.516;2023-04-30T14:38:51;11.52;;;4.50;;
34988;SDS011;21192;40.182;44.516;2023-04-30T14:41:17;10.05;;;3.80;;
34988;SDS011;21192;40.182;44.516;2023-04-30T14:43:43;12.15;;;3.53;;
34988;SDS011;21192;40.182;44.516;2023-04-30T14:46:09;10.27;;;2.75;;
34988;SDS011;21192;40.182;44.516;2023-04-30T14:48:36;11.48;;;3.65;;
34988;SDS011;21192;40.182;44.516;2023-04-30T14:51:02;8.07;;;2.47;;
34988;SDS011;21192;40.182;44.516;2023-04-30T14:53:28;6.05;;;2.25;;
34988;SDS011;21192;40.182;44.516;2023-04-30T14:55:54;5.78;;;2.88;;
34988;SDS011;21192;40.182;44.516;2023-04-30T14:58:20;7.07;;;3.03;;